sensor_id;sensor_type;location;lat;lon;timestamp;P1;durP1;ratioP1;P2;durP2;ratioP2
52318;SDS011;38258;51.148;14.068;2023-06-26T00:01:45;9.73;;;7.13;;
52318;SDS011;38258;51.148;14.068;2023-06-26T00:04:12;9.32;;;6.80;;
52318;SDS011;38258;51.148;14.068;2023-06-26T00:06:41;8.75;;;6.85;;
52318;SDS011;38258;51.148;14.068;2023-06-26T00:09:08;9.55;;;7.55;;
52318;SDS011;38258;51.148;14.068;2023-06-26T00:11:34;11.18;;;7.60;;
52318;SDS011;38258;51.148;14.068;2023-06-26T00:14:01;10.50;;;7.70;;
52318;SDS011;38258;51.148;14.068;2023-06-26T00:16:28;10.15;;;7.13;;
52318;SDS011;38258;51.148;14.068;2023-06-26T00:18:56;9.73;;;7.55;;
52318;SDS011;38258;51.148;14.068;2023-06-26T00:21:23;10.25;;;7.32;;
52318;SDS011;38258;51.148;14.068;2023-06-26T00:23:51;9.18;;;7.25;;
52318;SDS011;38258;51.148;14.068;2023-06-26T00:26:18;8.65;;;6.53;;
52318;SDS011;38258;51.148;14.068;2023-06-26T00:28:45;9.77;;;6.95;;
52318;SDS011;38258;51.148;14.068;2023-06-26T00:31:11;9.48;;;7.32;;
52318;SDS011;38258;51.148;14.068;2023-06-26T00:33:38;10.93;;;6.88;;
52318;SDS011;38258;51.148;14.068;2023-06-26T00:36:05;9.80;;;6.82;;
52318;SDS011;38258;51.148;14.068;2023-06-26T00:38:31;9.65;;;6.70;;
52318;SDS011;38258;51.148;14.068;2023-06-26T00:40:59;10.13;;;6.82;;
52318;SDS011;38258;51.148;14.068;2023-06-26T00:43:26;9.60;;;7.53;;
52318;SDS011;38258;51.148;14.068;2023-06-26T00:45:52;11.02;;;7.68;;
52318;SDS011;38258;51.148;14.068;2023-06-26T00:48:19;9.75;;;7.07;;
52318;SDS011;38258;51.148;14.068;2023-06-26T00:50:46;9.45;;;7.30;;
52318;SDS011;38258;51.148;14.068;2023-06-26T00:53:13;10.00;;;7.45;;
52318;SDS011;38258;51.148;14.068;2023-06-26T00:55:39;9.82;;;7.57;;
52318;SDS011;38258;51.148;14.068;2023-06-26T00:58:09;11.80;;;7.82;;
52318;SDS011;38258;51.148;14.068;2023-06-26T01:00:36;10.38;;;7.28;;
52318;SDS011;38258;51.148;14.068;2023-06-26T01:03:03;10.05;;;7.55;;
52318;SDS011;38258;51.148;14.068;2023-06-26T01:05:29;11.30;;;8.50;;
52318;SDS011;38258;51.148;14.068;2023-06-26T01:07:57;12.55;;;8.57;;
52318;SDS011;38258;51.148;14.068;2023-06-26T01:10:25;12.82;;;8.32;;
52318;SDS011;38258;51.148;14.068;2023-06-26T01:12:54;11.23;;;8.05;;
52318;SDS011;38258;51.148;14.068;2023-06-26T01:15:22;11.60;;;8.07;;
52318;SDS011;38258;51.148;14.068;2023-06-26T01:17:50;11.13;;;7.60;;
52318;SDS011;38258;51.148;14.068;2023-06-26T01:20:18;11.80;;;7.75;;
52318;SDS011;38258;51.148;14.068;2023-06-26T01:22:48;11.07;;;7.60;;
52318;SDS011;38258;51.148;14.068;2023-06-26T01:25:32;9.18;;;6.95;;
52318;SDS011;38258;51.148;14.068;2023-06-26T01:28:05;9.85;;;7.45;;
52318;SDS011;38258;51.148;14.068;2023-06-26T01:30:32;12.05;;;8.63;;
52318;SDS011;38258;51.148;14.068;2023-06-26T01:33:03;12.48;;;8.00;;
52318;SDS011;38258;51.148;14.068;2023-06-26T01:35:30;9.95;;;7.28;;
52318;SDS011;38258;51.148;14.068;2023-06-26T01:38:10;10.98;;;7.53;;
52318;SDS011;38258;51.148;14.068;2023-06-26T01:40:38;11.55;;;7.78;;
52318;SDS011;38258;51.148;14.068;2023-06-26T01:43:06;12.18;;;7.40;;
52318;SDS011;38258;51.148;14.068;2023-06-26T01:45:39;10.32;;;7.60;;
52318;SDS011;38258;51.148;14.068;2023-06-26T01:48:07;13.20;;;8.60;;
52318;SDS011;38258;51.148;14.068;2023-06-26T01:50:36;11.98;;;8.57;;
52318;SDS011;38258;51.148;14.068;2023-06-26T01:53:06;11.38;;;7.88;;
52318;SDS011;38258;51.148;14.068;2023-06-26T01:55:39;10.32;;;8.15;;
52318;SDS011;38258;51.148;14.068;2023-06-26T01:58:12;11.52;;;8.30;;
52318;SDS011;38258;51.148;14.068;2023-06-26T02:00:42;12.98;;;8.13;;
52318;SDS011;38258;51.148;14.068;2023-06-26T02:03:09;11.40;;;8.40;;
52318;SDS011;38258;51.148;14.068;2023-06-26T02:05:38;13.18;;;9.35;;
52318;SDS011;38258;51.148;14.068;2023-06-26T02:08:04;11.95;;;7.78;;
52318;SDS011;38258;51.148;14.068;2023-06-26T02:10:31;10.82;;;7.97;;
52318;SDS011;38258;51.148;14.068;2023-06-26T02:12:58;12.65;;;8.27;;
52318;SDS011;38258;51.148;14.068;2023-06-26T02:15:26;11.95;;;8.75;;
52318;SDS011;38258;51.148;14.068;2023-06-26T02:17:53;10.93;;;7.65;;
52318;SDS011;38258;51.148;14.068;2023-06-26T02:20:19;10.65;;;7.78;;
52318;SDS011;38258;51.148;14.068;2023-06-26T02:22:46;10.73;;;7.53;;
52318;SDS011;38258;51.148;14.068;2023-06-26T02:25:13;9.73;;;7.80;;
52318;SDS011;38258;51.148;14.068;2023-06-26T02:27:40;10.48;;;7.68;;
52318;SDS011;38258;51.148;14.068;2023-06-26T02:30:08;11.25;;;8.00;;
52318;SDS011;38258;51.148;14.068;2023-06-26T02:32:37;11.02;;;8.00;;
52318;SDS011;38258;51.148;14.068;2023-06-26T02:35:04;10.80;;;7.97;;
52318;SDS011;38258;51.148;14.068;2023-06-26T02:37:31;9.52;;;7.72;;
52318;SDS011;38258;51.148;14.068;2023-06-26T02:39:58;9.75;;;7.32;;
52318;SDS011;38258;51.148;14.068;2023-06-26T02:42:25;11.45;;;8.48;;
52318;SDS011;38258;51.148;14.068;2023-06-26T02:44:51;9.80;;;7.90;;
52318;SDS011;38258;51.148;14.068;2023-06-26T02:47:18;10.80;;;6.95;;
52318;SDS011;38258;51.148;14.068;2023-06-26T02:49:46;9.05;;;7.47;;
52318;SDS011;38258;51.148;14.068;2023-06-26T02:52:13;10.55;;;7.80;;
52318;SDS011;38258;51.148;14.068;2023-06-26T02:54:40;9.68;;;7.82;;
52318;SDS011;38258;51.148;14.068;2023-06-26T02:57:07;11.85;;;8.00;;
52318;SDS011;38258;51.148;14.068;2023-06-26T02:59:33;13.23;;;9.50;;
52318;SDS011;38258;51.148;14.068;2023-06-26T03:02:00;11.63;;;8.32;;
52318;SDS011;38258;51.148;14.068;2023-06-26T03:04:32;10.63;;;7.85;;
52318;SDS011;38258;51.148;14.068;2023-06-26T03:07:04;10.38;;;8.05;;
52318;SDS011;38258;51.148;14.068;2023-06-26T03:09:31;11.07;;;8.10;;
52318;SDS011;38258;51.148;14.068;2023-06-26T03:11:58;10.25;;;8.05;;
52318;SDS011;38258;51.148;14.068;2023-06-26T03:14:24;13.13;;;7.78;;
52318;SDS011;38258;51.148;14.068;2023-06-26T03:16:52;12.35;;;8.02;;
52318;SDS011;38258;51.148;14.068;2023-06-26T03:19:22;9.38;;;7.38;;
52318;SDS011;38258;51.148;14.068;2023-06-26T03:22:09;14.43;;;8.38;;
52318;SDS011;38258;51.148;14.068;2023-06-26T03:24:35;10.50;;;7.40;;
52318;SDS011;38258;51.148;14.068;2023-06-26T03:27:02;10.73;;;8.00;;
52318;SDS011;38258;51.148;14.068;2023-06-26T03:29:29;9.73;;;6.65;;
52318;SDS011;38258;51.148;14.068;2023-06-26T03:31:56;9.98;;;7.60;;
52318;SDS011;38258;51.148;14.068;2023-06-26T03:34:22;11.27;;;7.70;;
52318;SDS011;38258;51.148;14.068;2023-06-26T03:36:49;8.93;;;7.13;;
52318;SDS011;38258;51.148;14.068;2023-06-26T03:39:18;10.63;;;7.57;;
52318;SDS011;38258;51.148;14.068;2023-06-26T03:41:44;10.60;;;7.50;;
52318;SDS011;38258;51.148;14.068;2023-06-26T03:44:11;11.00;;;8.25;;
52318;SDS011;38258;51.148;14.068;2023-06-26T03:46:44;10.80;;;7.90;;
52318;SDS011;38258;51.148;14.068;2023-06-26T03:49:10;9.80;;;7.28;;
52318;SDS011;38258;51.148;14.068;2023-06-26T03:51:37;8.73;;;7.20;;
52318;SDS011;38258;51.148;14.068;2023-06-26T03:54:04;8.93;;;7.13;;
52318;SDS011;38258;51.148;14.068;2023-06-26T03:56:32;10.05;;;7.35;;
52318;SDS011;38258;51.148;14.068;2023-06-26T03:58:59;8.88;;;7.03;;
52318;SDS011;38258;51.148;14.068;2023-06-26T04:01:26;9.95;;;7.43;;
52318;SDS011;38258;51.148;14.068;2023-06-26T04:03:53;9.85;;;7.18;;
52318;SDS011;38258;51.148;14.068;2023-06-26T04:06:19;9.82;;;7.72;;
52318;SDS011;38258;51.148;14.068;2023-06-26T04:08:46;10.80;;;7.65;;
52318;SDS011;38258;51.148;14.068;2023-06-26T04:11:13;10.65;;;7.50;;
52318;SDS011;38258;51.148;14.068;2023-06-26T04:13:41;10.13;;;7.68;;
52318;SDS011;38258;51.148;14.068;2023-06-26T04:16:07;11.18;;;8.10;;
52318;SDS011;38258;51.148;14.068;2023-06-26T04:18:36;11.95;;;7.90;;
52318;SDS011;38258;51.148;14.068;2023-06-26T04:21:04;10.75;;;8.20;;
52318;SDS011;38258;51.148;14.068;2023-06-26T04:23:33;9.85;;;7.13;;
52318;SDS011;38258;51.148;14.068;2023-06-26T04:26:00;10.98;;;7.85;;
52318;SDS011;38258;51.148;14.068;2023-06-26T04:28:27;12.43;;;8.98;;
52318;SDS011;38258;51.148;14.068;2023-06-26T04:30:55;12.35;;;9.30;;
52318;SDS011;38258;51.148;14.068;2023-06-26T04:33:22;10.25;;;8.20;;
52318;SDS011;38258;51.148;14.068;2023-06-26T04:35:49;11.27;;;8.48;;
52318;SDS011;38258;51.148;14.068;2023-06-26T04:38:16;12.15;;;8.18;;
52318;SDS011;38258;51.148;14.068;2023-06-26T04:40:42;12.25;;;9.77;;
52318;SDS011;38258;51.148;14.068;2023-06-26T04:43:09;11.20;;;8.45;;
52318;SDS011;38258;51.148;14.068;2023-06-26T04:45:36;13.90;;;8.95;;
52318;SDS011;38258;51.148;14.068;2023-06-26T04:48:04;11.05;;;8.02;;
52318;SDS011;38258;51.148;14.068;2023-06-26T04:50:31;9.60;;;7.25;;
52318;SDS011;38258;51.148;14.068;2023-06-26T04:52:59;11.10;;;7.22;;
52318;SDS011;38258;51.148;14.068;2023-06-26T04:55:25;9.73;;;7.07;;
52318;SDS011;38258;51.148;14.068;2023-06-26T04:57:52;10.13;;;7.45;;
52318;SDS011;38258;51.148;14.068;2023-06-26T05:00:19;10.32;;;7.30;;
52318;SDS011;38258;51.148;14.068;2023-06-26T05:02:46;9.43;;;7.15;;
52318;SDS011;38258;51.148;14.068;2023-06-26T05:05:14;9.55;;;7.00;;
52318;SDS011;38258;51.148;14.068;2023-06-26T05:07:41;8.77;;;6.50;;
52318;SDS011;38258;51.148;14.068;2023-06-26T05:10:08;8.60;;;6.22;;
52318;SDS011;38258;51.148;14.068;2023-06-26T05:12:35;8.73;;;6.28;;
52318;SDS011;38258;51.148;14.068;2023-06-26T05:15:01;8.77;;;6.35;;
52318;SDS011;38258;51.148;14.068;2023-06-26T05:17:29;8.65;;;6.20;;
52318;SDS011;38258;51.148;14.068;2023-06-26T05:19:56;9.07;;;6.55;;
52318;SDS011;38258;51.148;14.068;2023-06-26T05:22:24;7.50;;;6.30;;
52318;SDS011;38258;51.148;14.068;2023-06-26T05:24:52;8.18;;;6.10;;
52318;SDS011;38258;51.148;14.068;2023-06-26T05:27:21;8.18;;;6.07;;
52318;SDS011;38258;51.148;14.068;2023-06-26T05:29:49;9.20;;;6.00;;
52318;SDS011;38258;51.148;14.068;2023-06-26T05:32:16;7.82;;;5.80;;
52318;SDS011;38258;51.148;14.068;2023-06-26T05:34:43;7.70;;;5.95;;
52318;SDS011;38258;51.148;14.068;2023-06-26T05:37:13;6.80;;;5.57;;
52318;SDS011;38258;51.148;14.068;2023-06-26T05:39:46;9.30;;;5.80;;
52318;SDS011;38258;51.148;14.068;2023-06-26T05:42:14;8.15;;;5.75;;
52318;SDS011;38258;51.148;14.068;2023-06-26T05:44:41;9.07;;;5.53;;
52318;SDS011;38258;51.148;14.068;2023-06-26T05:47:08;8.50;;;6.15;;
52318;SDS011;38258;51.148;14.068;2023-06-26T05:49:34;6.57;;;5.53;;
52318;SDS011;38258;51.148;14.068;2023-06-26T05:52:01;7.55;;;5.63;;
52318;SDS011;38258;51.148;14.068;2023-06-26T05:54:29;7.90;;;5.47;;
52318;SDS011;38258;51.148;14.068;2023-06-26T05:56:57;8.60;;;5.90;;
52318;SDS011;38258;51.148;14.068;2023-06-26T05:59:24;6.65;;;5.35;;
52318;SDS011;38258;51.148;14.068;2023-06-26T06:01:52;8.80;;;5.63;;
52318;SDS011;38258;51.148;14.068;2023-06-26T06:04:19;9.00;;;5.60;;
52318;SDS011;38258;51.148;14.068;2023-06-26T06:06:46;6.82;;;5.32;;
52318;SDS011;38258;51.148;14.068;2023-06-26T06:09:13;7.57;;;5.35;;
52318;SDS011;38258;51.148;14.068;2023-06-26T06:11:40;7.00;;;5.22;;
52318;SDS011;38258;51.148;14.068;2023-06-26T06:14:08;6.60;;;5.18;;
52318;SDS011;38258;51.148;14.068;2023-06-26T06:16:34;7.30;;;5.30;;
52318;SDS011;38258;51.148;14.068;2023-06-26T06:19:01;8.30;;;5.15;;
52318;SDS011;38258;51.148;14.068;2023-06-26T06:21:28;7.65;;;5.38;;
52318;SDS011;38258;51.148;14.068;2023-06-26T06:23:55;6.57;;;5.28;;
52318;SDS011;38258;51.148;14.068;2023-06-26T06:26:21;7.57;;;5.45;;
52318;SDS011;38258;51.148;14.068;2023-06-26T06:28:48;7.05;;;5.28;;
52318;SDS011;38258;51.148;14.068;2023-06-26T06:31:16;8.82;;;5.00;;
52318;SDS011;38258;51.148;14.068;2023-06-26T06:33:43;6.68;;;4.78;;
52318;SDS011;38258;51.148;14.068;2023-06-26T06:36:10;7.32;;;5.25;;
52318;SDS011;38258;51.148;14.068;2023-06-26T06:38:36;7.85;;;5.15;;
52318;SDS011;38258;51.148;14.068;2023-06-26T06:41:03;6.68;;;5.22;;
52318;SDS011;38258;51.148;14.068;2023-06-26T06:43:29;6.35;;;4.90;;
52318;SDS011;38258;51.148;14.068;2023-06-26T06:45:56;5.47;;;4.63;;
52318;SDS011;38258;51.148;14.068;2023-06-26T06:48:24;7.88;;;4.90;;
52318;SDS011;38258;51.148;14.068;2023-06-26T06:50:51;7.10;;;5.25;;
52318;SDS011;38258;51.148;14.068;2023-06-26T06:53:17;6.93;;;5.10;;
52318;SDS011;38258;51.148;14.068;2023-06-26T06:55:45;6.78;;;5.40;;
52318;SDS011;38258;51.148;14.068;2023-06-26T06:58:12;6.93;;;5.00;;
52318;SDS011;38258;51.148;14.068;2023-06-26T07:00:39;6.32;;;4.93;;
52318;SDS011;38258;51.148;14.068;2023-06-26T07:03:05;7.15;;;5.25;;
52318;SDS011;38258;51.148;14.068;2023-06-26T07:05:33;6.45;;;5.35;;
52318;SDS011;38258;51.148;14.068;2023-06-26T07:08:00;6.68;;;5.00;;
52318;SDS011;38258;51.148;14.068;2023-06-26T07:10:27;6.70;;;5.05;;
52318;SDS011;38258;51.148;14.068;2023-06-26T07:12:53;7.28;;;5.00;;
52318;SDS011;38258;51.148;14.068;2023-06-26T07:15:20;6.00;;;4.93;;
52318;SDS011;38258;51.148;14.068;2023-06-26T07:17:47;6.47;;;5.20;;
52318;SDS011;38258;51.148;14.068;2023-06-26T07:20:13;6.60;;;5.07;;
52318;SDS011;38258;51.148;14.068;2023-06-26T07:22:42;7.18;;;5.38;;
52318;SDS011;38258;51.148;14.068;2023-06-26T07:25:10;6.97;;;5.07;;
52318;SDS011;38258;51.148;14.068;2023-06-26T07:27:36;6.65;;;5.00;;
52318;SDS011;38258;51.148;14.068;2023-06-26T07:30:03;7.28;;;5.20;;
52318;SDS011;38258;51.148;14.068;2023-06-26T07:32:30;7.97;;;5.57;;
52318;SDS011;38258;51.148;14.068;2023-06-26T07:34:58;7.18;;;5.43;;
52318;SDS011;38258;51.148;14.068;2023-06-26T07:37:25;7.30;;;5.18;;
52318;SDS011;38258;51.148;14.068;2023-06-26T07:39:53;6.43;;;5.22;;
52318;SDS011;38258;51.148;14.068;2023-06-26T07:42:20;6.22;;;5.03;;
52318;SDS011;38258;51.148;14.068;2023-06-26T07:44:47;7.97;;;5.47;;
52318;SDS011;38258;51.148;14.068;2023-06-26T07:47:13;6.78;;;5.28;;
52318;SDS011;38258;51.148;14.068;2023-06-26T07:49:40;6.78;;;5.10;;
52318;SDS011;38258;51.148;14.068;2023-06-26T07:52:07;7.25;;;5.30;;
52318;SDS011;38258;51.148;14.068;2023-06-26T07:54:35;6.43;;;5.28;;
52318;SDS011;38258;51.148;14.068;2023-06-26T07:57:04;7.28;;;5.35;;
52318;SDS011;38258;51.148;14.068;2023-06-26T07:59:33;6.90;;;5.20;;
52318;SDS011;38258;51.148;14.068;2023-06-26T08:02:00;7.25;;;5.20;;
52318;SDS011;38258;51.148;14.068;2023-06-26T08:04:27;6.43;;;5.00;;
52318;SDS011;38258;51.148;14.068;2023-06-26T08:06:57;7.53;;;5.43;;
52318;SDS011;38258;51.148;14.068;2023-06-26T08:09:25;6.18;;;5.55;;
52318;SDS011;38258;51.148;14.068;2023-06-26T08:11:53;6.30;;;5.43;;
52318;SDS011;38258;51.148;14.068;2023-06-26T08:14:21;6.53;;;5.13;;
52318;SDS011;38258;51.148;14.068;2023-06-26T08:16:49;8.02;;;5.20;;
52318;SDS011;38258;51.148;14.068;2023-06-26T08:19:17;7.20;;;5.25;;
52318;SDS011;38258;51.148;14.068;2023-06-26T08:21:44;5.85;;;5.07;;
52318;SDS011;38258;51.148;14.068;2023-06-26T08:24:12;6.68;;;5.22;;
52318;SDS011;38258;51.148;14.068;2023-06-26T08:26:41;5.80;;;4.82;;
52318;SDS011;38258;51.148;14.068;2023-06-26T08:29:08;5.57;;;4.82;;
52318;SDS011;38258;51.148;14.068;2023-06-26T08:31:36;6.00;;;5.07;;
52318;SDS011;38258;51.148;14.068;2023-06-26T08:34:03;6.00;;;5.03;;
52318;SDS011;38258;51.148;14.068;2023-06-26T08:36:30;5.88;;;5.18;;
52318;SDS011;38258;51.148;14.068;2023-06-26T08:38:58;6.85;;;4.90;;
52318;SDS011;38258;51.148;14.068;2023-06-26T08:41:25;6.00;;;5.10;;
52318;SDS011;38258;51.148;14.068;2023-06-26T08:43:51;5.35;;;4.80;;
52318;SDS011;38258;51.148;14.068;2023-06-26T08:46:18;6.63;;;4.80;;
52318;SDS011;38258;51.148;14.068;2023-06-26T08:48:48;5.63;;;4.88;;
52318;SDS011;38258;51.148;14.068;2023-06-26T08:51:16;6.65;;;4.85;;
52318;SDS011;38258;51.148;14.068;2023-06-26T08:53:46;6.80;;;5.22;;
52318;SDS011;38258;51.148;14.068;2023-06-26T08:56:17;6.88;;;5.07;;
52318;SDS011;38258;51.148;14.068;2023-06-26T08:58:46;6.05;;;4.70;;
52318;SDS011;38258;51.148;14.068;2023-06-26T09:01:13;6.10;;;5.05;;
52318;SDS011;38258;51.148;14.068;2023-06-26T09:03:40;6.70;;;5.03;;
52318;SDS011;38258;51.148;14.068;2023-06-26T09:06:09;5.10;;;4.60;;
52318;SDS011;38258;51.148;14.068;2023-06-26T09:08:36;9.45;;;5.07;;
52318;SDS011;38258;51.148;14.068;2023-06-26T09:11:03;5.90;;;5.07;;
52318;SDS011;38258;51.148;14.068;2023-06-26T09:13:29;6.50;;;5.38;;
52318;SDS011;38258;51.148;14.068;2023-06-26T09:15:57;5.53;;;4.97;;
52318;SDS011;38258;51.148;14.068;2023-06-26T09:18:24;5.97;;;4.85;;
52318;SDS011;38258;51.148;14.068;2023-06-26T09:20:51;5.82;;;5.15;;
52318;SDS011;38258;51.148;14.068;2023-06-26T09:23:19;5.70;;;4.97;;
52318;SDS011;38258;51.148;14.068;2023-06-26T09:25:48;7.05;;;5.00;;
52318;SDS011;38258;51.148;14.068;2023-06-26T09:28:17;6.10;;;5.45;;
52318;SDS011;38258;51.148;14.068;2023-06-26T09:30:44;5.65;;;4.90;;
52318;SDS011;38258;51.148;14.068;2023-06-26T09:33:15;5.25;;;4.75;;
52318;SDS011;38258;51.148;14.068;2023-06-26T09:35:43;6.00;;;4.93;;
52318;SDS011;38258;51.148;14.068;2023-06-26T09:38:09;5.32;;;4.75;;
52318;SDS011;38258;51.148;14.068;2023-06-26T09:40:38;5.70;;;5.10;;
52318;SDS011;38258;51.148;14.068;2023-06-26T09:43:04;6.95;;;4.68;;
52318;SDS011;38258;51.148;14.068;2023-06-26T09:45:32;5.65;;;4.85;;
52318;SDS011;38258;51.148;14.068;2023-06-26T09:48:00;6.13;;;4.88;;
52318;SDS011;38258;51.148;14.068;2023-06-26T09:50:28;6.10;;;5.22;;
52318;SDS011;38258;51.148;14.068;2023-06-26T09:52:55;6.38;;;5.13;;
52318;SDS011;38258;51.148;14.068;2023-06-26T09:55:21;7.50;;;5.15;;
52318;SDS011;38258;51.148;14.068;2023-06-26T09:57:50;6.10;;;5.15;;
52318;SDS011;38258;51.148;14.068;2023-06-26T10:00:18;5.40;;;4.90;;
52318;SDS011;38258;51.148;14.068;2023-06-26T10:02:45;5.43;;;4.85;;
52318;SDS011;38258;51.148;14.068;2023-06-26T10:05:12;6.07;;;4.93;;
52318;SDS011;38258;51.148;14.068;2023-06-26T10:07:39;6.30;;;5.20;;
52318;SDS011;38258;51.148;14.068;2023-06-26T10:10:09;5.70;;;4.93;;
52318;SDS011;38258;51.148;14.068;2023-06-26T10:12:37;6.03;;;4.85;;
52318;SDS011;38258;51.148;14.068;2023-06-26T10:15:06;6.07;;;5.05;;
52318;SDS011;38258;51.148;14.068;2023-06-26T10:17:37;6.00;;;5.00;;
52318;SDS011;38258;51.148;14.068;2023-06-26T10:20:07;5.75;;;4.75;;
52318;SDS011;38258;51.148;14.068;2023-06-26T10:22:36;6.75;;;5.43;;
52318;SDS011;38258;51.148;14.068;2023-06-26T10:25:07;6.78;;;5.75;;
52318;SDS011;38258;51.148;14.068;2023-06-26T10:27:37;7.50;;;5.18;;
52318;SDS011;38258;51.148;14.068;2023-06-26T10:30:11;5.80;;;4.97;;
52318;SDS011;38258;51.148;14.068;2023-06-26T10:32:42;5.97;;;5.38;;
52318;SDS011;38258;51.148;14.068;2023-06-26T10:35:10;6.45;;;5.35;;
52318;SDS011;38258;51.148;14.068;2023-06-26T10:37:41;6.75;;;5.10;;
52318;SDS011;38258;51.148;14.068;2023-06-26T10:40:09;6.00;;;5.40;;
52318;SDS011;38258;51.148;14.068;2023-06-26T10:42:36;5.30;;;4.80;;
52318;SDS011;38258;51.148;14.068;2023-06-26T10:45:13;6.15;;;5.30;;
52318;SDS011;38258;51.148;14.068;2023-06-26T10:47:41;6.60;;;5.22;;
52318;SDS011;38258;51.148;14.068;2023-06-26T10:50:23;6.13;;;5.20;;
52318;SDS011;38258;51.148;14.068;2023-06-26T10:53:13;6.38;;;4.93;;
52318;SDS011;38258;51.148;14.068;2023-06-26T10:58:26;5.57;;;4.97;;
52318;SDS011;38258;51.148;14.068;2023-06-26T11:03:48;5.55;;;4.95;;
52318;SDS011;38258;51.148;14.068;2023-06-26T11:06:28;5.97;;;5.38;;
52318;SDS011;38258;51.148;14.068;2023-06-26T11:08:59;5.80;;;5.10;;
52318;SDS011;38258;51.148;14.068;2023-06-26T11:14:27;6.60;;;5.30;;
52318;SDS011;38258;51.148;14.068;2023-06-26T11:16:55;7.38;;;5.50;;
52318;SDS011;38258;51.148;14.068;2023-06-26T11:19:24;6.93;;;5.13;;
52318;SDS011;38258;51.148;14.068;2023-06-26T11:21:52;5.93;;;4.53;;
52318;SDS011;38258;51.148;14.068;2023-06-26T11:24:23;5.50;;;4.90;;
52318;SDS011;38258;51.148;14.068;2023-06-26T11:26:51;7.03;;;4.50;;
52318;SDS011;38258;51.148;14.068;2023-06-26T11:29:18;5.15;;;4.60;;
52318;SDS011;38258;51.148;14.068;2023-06-26T11:31:45;5.82;;;4.95;;
52318;SDS011;38258;51.148;14.068;2023-06-26T11:34:12;6.40;;;5.03;;
52318;SDS011;38258;51.148;14.068;2023-06-26T11:36:42;5.00;;;4.50;;
52318;SDS011;38258;51.148;14.068;2023-06-26T11:39:11;5.18;;;4.63;;
52318;SDS011;38258;51.148;14.068;2023-06-26T11:41:38;5.18;;;4.68;;
52318;SDS011;38258;51.148;14.068;2023-06-26T11:44:06;5.05;;;4.55;;
52318;SDS011;38258;51.148;14.068;2023-06-26T11:46:34;5.00;;;4.35;;
52318;SDS011;38258;51.148;14.068;2023-06-26T11:49:02;5.80;;;4.60;;
52318;SDS011;38258;51.148;14.068;2023-06-26T11:51:29;6.00;;;4.60;;
52318;SDS011;38258;51.148;14.068;2023-06-26T11:54:00;8.10;;;4.75;;
52318;SDS011;38258;51.148;14.068;2023-06-26T11:56:28;5.72;;;4.50;;
52318;SDS011;38258;51.148;14.068;2023-06-26T11:58:55;5.63;;;4.82;;
52318;SDS011;38258;51.148;14.068;2023-06-26T12:01:23;5.32;;;4.72;;
52318;SDS011;38258;51.148;14.068;2023-06-26T12:03:51;5.35;;;4.65;;
52318;SDS011;38258;51.148;14.068;2023-06-26T12:06:20;6.07;;;4.55;;
52318;SDS011;38258;51.148;14.068;2023-06-26T12:08:47;5.75;;;5.03;;
52318;SDS011;38258;51.148;14.068;2023-06-26T12:11:15;5.43;;;4.75;;
52318;SDS011;38258;51.148;14.068;2023-06-26T12:13:43;5.30;;;4.65;;
52318;SDS011;38258;51.148;14.068;2023-06-26T12:16:11;6.20;;;4.82;;
52318;SDS011;38258;51.148;14.068;2023-06-26T12:18:38;5.78;;;4.90;;
52318;SDS011;38258;51.148;14.068;2023-06-26T12:21:05;5.40;;;4.80;;
52318;SDS011;38258;51.148;14.068;2023-06-26T12:23:32;5.68;;;4.60;;
52318;SDS011;38258;51.148;14.068;2023-06-26T12:26:15;7.05;;;4.90;;
52318;SDS011;38258;51.148;14.068;2023-06-26T12:28:44;5.30;;;4.80;;
52318;SDS011;38258;51.148;14.068;2023-06-26T12:31:14;5.35;;;4.63;;
52318;SDS011;38258;51.148;14.068;2023-06-26T12:33:42;5.85;;;4.63;;
52318;SDS011;38258;51.148;14.068;2023-06-26T12:36:10;5.50;;;4.68;;
52318;SDS011;38258;51.148;14.068;2023-06-26T12:38:38;5.20;;;4.70;;
52318;SDS011;38258;51.148;14.068;2023-06-26T12:41:05;5.18;;;4.63;;
52318;SDS011;38258;51.148;14.068;2023-06-26T12:43:32;5.20;;;4.43;;
52318;SDS011;38258;51.148;14.068;2023-06-26T12:46:04;5.82;;;4.72;;
52318;SDS011;38258;51.148;14.068;2023-06-26T12:48:37;5.82;;;4.70;;
52318;SDS011;38258;51.148;14.068;2023-06-26T12:51:09;6.75;;;4.35;;
52318;SDS011;38258;51.148;14.068;2023-06-26T12:53:36;5.25;;;4.57;;
52318;SDS011;38258;51.148;14.068;2023-06-26T12:56:04;4.85;;;4.28;;
52318;SDS011;38258;51.148;14.068;2023-06-26T12:58:32;5.15;;;4.65;;
52318;SDS011;38258;51.148;14.068;2023-06-26T13:00:59;5.97;;;4.70;;
52318;SDS011;38258;51.148;14.068;2023-06-26T13:03:28;5.20;;;4.68;;
52318;SDS011;38258;51.148;14.068;2023-06-26T13:05:54;6.10;;;4.20;;
52318;SDS011;38258;51.148;14.068;2023-06-26T13:08:21;6.07;;;4.35;;
52318;SDS011;38258;51.148;14.068;2023-06-26T13:10:48;5.40;;;4.30;;
52318;SDS011;38258;51.148;14.068;2023-06-26T13:13:14;5.03;;;4.43;;
52318;SDS011;38258;51.148;14.068;2023-06-26T13:15:42;5.00;;;4.35;;
52318;SDS011;38258;51.148;14.068;2023-06-26T13:18:09;6.30;;;4.68;;
52318;SDS011;38258;51.148;14.068;2023-06-26T13:20:36;5.25;;;4.75;;
52318;SDS011;38258;51.148;14.068;2023-06-26T13:23:02;6.70;;;4.43;;
52318;SDS011;38258;51.148;14.068;2023-06-26T13:25:29;4.90;;;4.40;;
52318;SDS011;38258;51.148;14.068;2023-06-26T13:27:56;6.13;;;4.35;;
52318;SDS011;38258;51.148;14.068;2023-06-26T13:30:22;6.10;;;4.20;;
52318;SDS011;38258;51.148;14.068;2023-06-26T13:32:50;5.47;;;4.20;;
52318;SDS011;38258;51.148;14.068;2023-06-26T13:35:17;4.78;;;4.20;;
52318;SDS011;38258;51.148;14.068;2023-06-26T13:37:44;6.55;;;4.28;;
52318;SDS011;38258;51.148;14.068;2023-06-26T13:40:12;5.47;;;4.22;;
52318;SDS011;38258;51.148;14.068;2023-06-26T13:42:39;6.95;;;4.55;;
52318;SDS011;38258;51.148;14.068;2023-06-26T13:45:06;4.97;;;4.15;;
52318;SDS011;38258;51.148;14.068;2023-06-26T13:47:34;5.25;;;4.40;;
52318;SDS011;38258;51.148;14.068;2023-06-26T13:50:04;5.03;;;4.53;;
52318;SDS011;38258;51.148;14.068;2023-06-26T13:52:32;5.13;;;4.30;;
52318;SDS011;38258;51.148;14.068;2023-06-26T13:54:58;5.60;;;4.47;;
52318;SDS011;38258;51.148;14.068;2023-06-26T13:57:25;5.45;;;4.28;;
52318;SDS011;38258;51.148;14.068;2023-06-26T13:59:52;5.20;;;4.45;;
52318;SDS011;38258;51.148;14.068;2023-06-26T14:02:19;5.30;;;4.45;;
52318;SDS011;38258;51.148;14.068;2023-06-26T14:04:46;5.30;;;4.80;;
52318;SDS011;38258;51.148;14.068;2023-06-26T14:07:14;5.10;;;4.40;;
52318;SDS011;38258;51.148;14.068;2023-06-26T14:09:41;5.40;;;4.47;;
52318;SDS011;38258;51.148;14.068;2023-06-26T14:12:08;5.75;;;4.30;;
52318;SDS011;38258;51.148;14.068;2023-06-26T14:14:35;5.60;;;4.70;;
52318;SDS011;38258;51.148;14.068;2023-06-26T14:17:01;5.28;;;4.63;;
52318;SDS011;38258;51.148;14.068;2023-06-26T14:19:30;5.43;;;4.50;;
52318;SDS011;38258;51.148;14.068;2023-06-26T14:21:56;5.40;;;4.90;;
52318;SDS011;38258;51.148;14.068;2023-06-26T14:24:26;5.18;;;4.68;;
52318;SDS011;38258;51.148;14.068;2023-06-26T14:26:52;8.07;;;4.63;;
52318;SDS011;38258;51.148;14.068;2023-06-26T14:29:19;5.57;;;4.47;;
52318;SDS011;38258;51.148;14.068;2023-06-26T14:31:46;6.03;;;4.40;;
52318;SDS011;38258;51.148;14.068;2023-06-26T14:34:13;5.65;;;5.03;;
52318;SDS011;38258;51.148;14.068;2023-06-26T14:36:39;7.55;;;4.97;;
52318;SDS011;38258;51.148;14.068;2023-06-26T14:39:06;6.32;;;4.93;;
52318;SDS011;38258;51.148;14.068;2023-06-26T14:41:34;7.50;;;4.70;;
52318;SDS011;38258;51.148;14.068;2023-06-26T14:44:01;6.88;;;4.70;;